sensor_id;sensor_type;location;lat;lon;timestamp;pressure;altitude;pressure_sealevel;temperature;humidity
69911;BME280;63555;49.920;17.868;2023-05-24T00:01:12;98402.91;;;14.39;100.00
69911;BME280;63555;49.920;17.868;2023-05-24T00:06:13;98407.88;;;14.24;100.00
69911;BME280;63555;49.920;17.868;2023-05-24T00:11:13;98412.13;;;14.07;100.00
69911;BME280;63555;49.920;17.868;2023-05-24T00:16:14;98418.31;;;13.98;100.00
69911;BME280;63555;49.920;17.868;2023-05-24T00:21:14;98411.34;;;13.97;100.00
69911;BME280;63555;49.920;17.868;2023-05-24T00:26:15;98408.00;;;13.95;100.00
69911;BME280;63555;49.920;17.868;2023-05-24T00:31:15;98419.44;;;13.95;100.00
69911;BME280;63555;49.920;17.868;2023-05-24T00:36:16;98427.34;;;14.05;100.00
69911;BME280;63555;49.920;17.868;2023-05-24T00:41:16;98440.03;;;14.11;100.00
69911;BME280;63555;49.920;17.868;2023-05-24T00:46:21;98441.41;;;14.15;100.00
69911;BME280;63555;49.920;17.868;2023-05-24T00:51:22;98449.63;;;14.22;100.00
69911;BME280;63555;49.920;17.868;2023-05-24T00:56:23;98449.16;;;14.26;100.00
69911;BME280;63555;49.920;17.868;2023-05-24T01:01:24;98449.88;;;14.28;100.00
69911;BME280;63555;49.920;17.868;2023-05-24T01:06:32;98454.03;;;14.31;100.00
69911;BME280;63555;49.920;17.868;2023-05-24T01:17:11;98450.31;;;14.24;100.00
69911;BME280;63555;49.920;17.868;2023-05-24T01:27:36;98453.50;;;13.81;100.00
69911;BME280;63555;49.920;17.868;2023-05-24T01:32:37;98457.72;;;13.64;100.00
69911;BME280;63555;49.920;17.868;2023-05-24T01:37:37;98469.03;;;13.66;100.00
69911;BME280;63555;49.920;17.868;2023-05-24T01:43:13;98467.31;;;13.75;100.00
69911;BME280;63555;49.920;17.868;2023-05-24T01:48:30;98476.94;;;13.85;100.00
69911;BME280;63555;49.920;17.868;2023-05-24T01:53:40;98481.13;;;13.88;100.00
69911;BME280;63555;49.920;17.868;2023-05-24T01:58:42;98476.25;;;13.93;100.00
69911;BME280;63555;49.920;17.868;2023-05-24T02:03:43;98494.38;;;13.97;100.00
69911;BME280;63555;49.920;17.868;2023-05-24T02:08:44;98483.06;;;13.95;100.00
69911;BME280;63555;49.920;17.868;2023-05-24T02:13:45;98489.75;;;13.99;100.00
69911;BME280;63555;49.920;17.868;2023-05-24T02:18:45;98488.34;;;14.05;100.00
69911;BME280;63555;49.920;17.868;2023-05-24T02:23:46;98484.72;;;14.06;100.00
69911;BME280;63555;49.920;17.868;2023-05-24T02:28:47;98484.72;;;14.06;100.00
69911;BME280;63555;49.920;17.868;2023-05-24T02:33:47;98489.47;;;14.02;100.00
69911;BME280;63555;49.920;17.868;2023-05-24T02:38:48;98490.88;;;13.97;100.00
69911;BME280;63555;49.920;17.868;2023-05-24T02:43:49;98490.91;;;13.87;100.00
69911;BME280;63555;49.920;17.868;2023-05-24T02:48:49;98503.03;;;13.80;100.00
69911;BME280;63555;49.920;17.868;2023-05-24T02:53:49;98508.78;;;13.66;100.00
69911;BME280;63555;49.920;17.868;2023-05-24T02:58:50;98511.84;;;13.52;100.00
69911;BME280;63555;49.920;17.868;2023-05-24T03:03:53;98521.34;;;13.35;100.00
69911;BME280;63555;49.920;17.868;2023-05-24T03:08:53;98519.94;;;13.21;100.00
69911;BME280;63555;49.920;17.868;2023-05-24T03:13:53;98533.19;;;13.21;100.00
69911;BME280;63555;49.920;17.868;2023-05-24T03:18:54;98543.06;;;13.19;100.00
69911;BME280;63555;49.920;17.868;2023-05-24T03:23:55;98548.22;;;13.21;100.00
69911;BME280;63555;49.920;17.868;2023-05-24T03:28:55;98552.69;;;13.20;100.00
69911;BME280;63555;49.920;17.868;2023-05-24T03:33:56;98548.75;;;13.15;100.00
69911;BME280;63555;49.920;17.868;2023-05-24T03:38:56;98553.75;;;13.08;100.00
69911;BME280;63555;49.920;17.868;2023-05-24T03:43:58;98558.88;;;13.00;100.00
69911;BME280;63555;49.920;17.868;2023-05-24T03:48:59;98555.34;;;12.90;100.00
69911;BME280;63555;49.920;17.868;2023-05-24T03:53:59;98570.50;;;12.78;100.00
69911;BME280;63555;49.920;17.868;2023-05-24T03:58:59;98576.69;;;12.58;100.00
69911;BME280;63555;49.920;17.868;2023-05-24T04:04:03;98576.63;;;12.38;100.00
69911;BME280;63555;49.920;17.868;2023-05-24T04:09:03;98593.41;;;12.28;100.00
69911;BME280;63555;49.920;17.868;2023-05-24T04:14:04;98587.81;;;12.21;100.00
69911;BME280;63555;49.920;17.868;2023-05-24T04:19:05;98600.19;;;12.21;100.00
69911;BME280;63555;49.920;17.868;2023-05-24T04:24:05;98612.69;;;12.19;100.00
69911;BME280;63555;49.920;17.868;2023-05-24T04:29:06;98621.72;;;12.16;100.00
69911;BME280;63555;49.920;17.868;2023-05-24T04:34:06;98632.28;;;12.16;100.00
69911;BME280;63555;49.920;17.868;2023-05-24T04:39:08;98638.78;;;12.12;100.00
69911;BME280;63555;49.920;17.868;2023-05-24T04:44:10;98637.47;;;12.06;100.00
69911;BME280;63555;49.920;17.868;2023-05-24T04:49:10;98637.22;;;12.09;100.00
69911;BME280;63555;49.920;17.868;2023-05-24T04:54:11;98643.34;;;12.10;100.00
69911;BME280;63555;49.920;17.868;2023-05-24T04:59:12;98651.03;;;12.13;100.00
69911;BME280;63555;49.920;17.868;2023-05-24T05:04:12;98655.38;;;12.14;100.00
69911;BME280;63555;49.920;17.868;2023-05-24T05:09:13;98662.94;;;12.07;100.00
69911;BME280;63555;49.920;17.868;2023-05-24T05:14:14;98671.97;;;12.05;100.00
69911;BME280;63555;49.920;17.868;2023-05-24T05:19:15;98682.66;;;12.15;100.00
69911;BME280;63555;49.920;17.868;2023-05-24T05:24:15;98692.31;;;12.25;100.00
69911;BME280;63555;49.920;17.868;2023-05-24T05:29:17;98681.81;;;12.35;100.00
69911;BME280;63555;49.920;17.868;2023-05-24T05:34:17;98690.59;;;12.35;100.00
69911;BME280;63555;49.920;17.868;2023-05-24T05:39:18;98693.16;;;12.47;100.00
69911;BME280;63555;49.920;17.868;2023-05-24T05:44:19;98696.31;;;12.61;100.00
69911;BME280;63555;49.920;17.868;2023-05-24T05:49:19;98704.34;;;12.81;100.00
69911;BME280;63555;49.920;17.868;2023-05-24T05:54:19;98699.16;;;13.00;100.00
69911;BME280;63555;49.920;17.868;2023-05-24T05:59:20;98705.31;;;13.21;100.00
69911;BME280;63555;49.920;17.868;2023-05-24T06:04:20;98713.59;;;13.47;100.00
69911;BME280;63555;49.920;17.868;2023-05-24T06:09:21;98716.28;;;13.57;100.00
69911;BME280;63555;49.920;17.868;2023-05-24T06:14:21;98723.53;;;13.64;100.00
69911;BME280;63555;49.920;17.868;2023-05-24T06:19:24;98722.28;;;13.59;100.00
69911;BME280;63555;49.920;17.868;2023-05-24T06:24:24;98738.16;;;13.49;100.00
69911;BME280;63555;49.920;17.868;2023-05-24T06:29:25;98739.94;;;13.39;100.00
69911;BME280;63555;49.920;17.868;2023-05-24T06:34:25;98751.50;;;13.38;100.00
69911;BME280;63555;49.920;17.868;2023-05-24T06:39:26;98753.84;;;13.31;100.00
69911;BME280;63555;49.920;17.868;2023-05-24T06:44:27;98763.03;;;13.27;100.00
69911;BME280;63555;49.920;17.868;2023-05-24T06:49:33;98771.63;;;13.20;100.00
69911;BME280;63555;49.920;17.868;2023-05-24T06:54:33;98775.44;;;13.27;100.00
69911;BME280;63555;49.920;17.868;2023-05-24T06:59:34;98772.03;;;13.46;100.00
69911;BME280;63555;49.920;17.868;2023-05-24T07:04:34;98777.81;;;13.70;100.00
69911;BME280;63555;49.920;17.868;2023-05-24T07:09:35;98789.06;;;13.93;100.00
69911;BME280;63555;49.920;17.868;2023-05-24T07:14:36;98799.44;;;14.15;100.00
69911;BME280;63555;49.920;17.868;2023-05-24T07:19:36;98792.19;;;14.37;100.00
69911;BME280;63555;49.920;17.868;2023-05-24T07:24:36;98800.31;;;14.54;100.00
69911;BME280;63555;49.920;17.868;2023-05-24T07:29:37;98805.91;;;14.80;100.00
69911;BME280;63555;49.920;17.868;2023-05-24T07:34:37;98813.28;;;14.96;100.00
69911;BME280;63555;49.920;17.868;2023-05-24T07:39:38;98811.31;;;15.08;100.00
69911;BME280;63555;49.920;17.868;2023-05-24T07:44:38;98820.41;;;15.05;100.00
69911;BME280;63555;49.920;17.868;2023-05-24T07:49:39;98823.91;;;15.06;100.00
69911;BME280;63555;49.920;17.868;2023-05-24T07:54:40;98820.41;;;15.05;100.00
69911;BME280;63555;49.920;17.868;2023-05-24T07:59:40;98831.59;;;15.09;100.00
69911;BME280;63555;49.920;17.868;2023-05-24T08:04:41;98826.44;;;14.97;100.00
69911;BME280;63555;49.920;17.868;2023-05-24T08:09:41;98829.22;;;14.96;100.00
69911;BME280;63555;49.920;17.868;2023-05-24T08:14:42;98836.19;;;15.07;100.00
69911;BME280;63555;49.920;17.868;2023-05-24T08:19:43;98841.25;;;15.00;100.00
69911;BME280;63555;49.920;17.868;2023-05-24T08:24:43;98846.00;;;14.87;98.95
69911;BME280;63555;49.920;17.868;2023-05-24T08:29:43;98851.03;;;14.71;99.28
69911;BME280;63555;49.920;17.868;2023-05-24T08:34:44;98868.63;;;14.62;99.83
69911;BME280;63555;49.920;17.868;2023-05-24T08:39:44;98873.91;;;14.52;100.00
69911;BME280;63555;49.920;17.868;2023-05-24T08:44:52;98868.38;;;14.75;100.00
69911;BME280;63555;49.920;17.868;2023-05-24T08:49:54;98873.25;;;14.98;100.00
69911;BME280;63555;49.920;17.868;2023-05-24T08:54:54;98886.53;;;14.98;100.00
69911;BME280;63555;49.920;17.868;2023-05-24T08:59:55;98891.84;;;14.98;100.00
69911;BME280;63555;49.920;17.868;2023-05-24T09:04:56;98888.47;;;15.06;100.00
69911;BME280;63555;49.920;17.868;2023-05-24T09:10:03;98898.00;;;14.80;98.87
69911;BME280;63555;49.920;17.868;2023-05-24T09:15:07;98903.25;;;14.60;99.26
69911;BME280;63555;49.920;17.868;2023-05-24T09:20:08;98913.03;;;14.60;100.00
69911;BME280;63555;49.920;17.868;2023-05-24T09:25:12;98901.06;;;14.94;100.00
69911;BME280;63555;49.920;17.868;2023-05-24T09:30:13;98912.34;;;15.45;100.00
69911;BME280;63555;49.920;17.868;2023-05-24T09:35:14;98921.84;;;15.76;100.00
69911;BME280;63555;49.920;17.868;2023-05-24T09:40:18;98929.94;;;15.75;99.60
69911;BME280;63555;49.920;17.868;2023-05-24T09:45:19;98921.22;;;15.92;99.91
69911;BME280;63555;49.920;17.868;2023-05-24T09:50:20;98926.84;;;16.16;98.41
69911;BME280;63555;49.920;17.868;2023-05-24T09:55:20;98926.22;;;16.32;98.83
69911;BME280;63555;49.920;17.868;2023-05-24T10:00:22;98926.34;;;17.03;100.00
69911;BME280;63555;49.920;17.868;2023-05-24T10:05:23;98932.06;;;18.22;100.00
69911;BME280;63555;49.920;17.868;2023-05-24T10:10:28;98939.25;;;18.63;94.51
69911;BME280;63555;49.920;17.868;2023-05-24T10:15:29;98943.03;;;19.52;96.51
69911;BME280;63555;49.920;17.868;2023-05-24T10:20:30;98927.47;;;20.82;91.07
69911;BME280;63555;49.920;17.868;2023-05-24T10:25:32;98940.41;;;20.71;88.23
69911;BME280;63555;49.920;17.868;2023-05-24T10:30:46;98939.91;;;20.67;88.54
69911;BME280;63555;49.920;17.868;2023-05-24T10:35:50;98930.34;;;20.73;84.81
69911;BME280;63555;49.920;17.868;2023-05-24T10:40:51;98940.00;;;19.87;84.35
69911;BME280;63555;49.920;17.868;2023-05-24T10:45:52;98946.81;;;18.84;85.19
69911;BME280;63555;49.920;17.868;2023-05-24T10:50:52;98952.00;;;17.83;86.91
69911;BME280;63555;49.920;17.868;2023-05-24T11:00:57;98957.94;;;17.16;90.16
69911;BME280;63555;49.920;17.868;2023-05-24T11:05:57;98952.69;;;17.86;91.79
69911;BME280;63555;49.920;17.868;2023-05-24T11:16:31;98959.22;;;18.51;85.09
69911;BME280;63555;49.920;17.868;2023-05-24T11:21:32;98969.00;;;18.34;86.32
69911;BME280;63555;49.920;17.868;2023-05-24T11:26:32;98964.78;;;17.98;85.72
69911;BME280;63555;49.920;17.868;2023-05-24T11:31:33;98962.16;;;17.62;86.33
69911;BME280;63555;49.920;17.868;2023-05-24T11:36:34;98960.22;;;17.46;86.58
69911;BME280;63555;49.920;17.868;2023-05-24T11:41:37;98960.19;;;17.64;87.52
69911;BME280;63555;49.920;17.868;2023-05-24T11:46:38;98958.78;;;18.04;85.21
69911;BME280;63555;49.920;17.868;2023-05-24T11:51:39;98957.59;;;18.24;85.13
69911;BME280;63555;49.920;17.868;2023-05-24T11:56:39;98967.84;;;18.37;84.75
69911;BME280;63555;49.920;17.868;2023-05-24T12:01:40;98966.75;;;18.56;84.40
69911;BME280;63555;49.920;17.868;2023-05-24T12:06:42;98971.47;;;18.62;82.14
69911;BME280;63555;49.920;17.868;2023-05-24T12:11:46;98963.38;;;18.20;82.15
69911;BME280;63555;49.920;17.868;2023-05-24T12:16:48;98980.00;;;17.62;82.69
69911;BME280;63555;49.920;17.868;2023-05-24T12:21:49;98975.06;;;17.31;84.02
69911;BME280;63555;49.920;17.868;2023-05-24T12:26:49;98983.81;;;17.06;82.99
69911;BME280;63555;49.920;17.868;2023-05-24T12:31:49;98983.06;;;16.96;83.19
69911;BME280;63555;49.920;17.868;2023-05-24T12:36:52;98973.31;;;16.86;82.34
69911;BME280;63555;49.920;17.868;2023-05-24T12:41:54;98971.41;;;16.79;82.08
69911;BME280;63555;49.920;17.868;2023-05-24T12:46:55;98969.44;;;17.16;80.99
69911;BME280;63555;49.920;17.868;2023-05-24T12:51:56;98972.56;;;17.30;80.30
69911;BME280;63555;49.920;17.868;2023-05-24T12:56:57;98969.78;;;18.01;78.49
69911;BME280;63555;49.920;17.868;2023-05-24T13:02:02;98978.63;;;18.27;76.71
69911;BME280;63555;49.920;17.868;2023-05-24T13:07:02;98974.50;;;17.81;76.52
69911;BME280;63555;49.920;17.868;2023-05-24T13:12:03;98970.56;;;17.67;77.85
69911;BME280;63555;49.920;17.868;2023-05-24T13:17:05;98969.53;;;18.88;76.49
69911;BME280;63555;49.920;17.868;2023-05-24T13:22:06;98969.78;;;19.84;73.03
69911;BME280;63555;49.920;17.868;2023-05-24T13:27:07;98970.78;;;19.83;71.95
69911;BME280;63555;49.920;17.868;2023-05-24T13:32:07;98976.97;;;19.35;72.62
69911;BME280;63555;49.920;17.868;2023-05-24T13:37:08;98970.03;;;18.92;72.87
69911;BME280;63555;49.920;17.868;2023-05-24T13:42:12;98961.16;;;18.75;73.10
69911;BME280;63555;49.920;17.868;2023-05-24T13:47:12;98960.66;;;18.80;73.02
69911;BME280;63555;49.920;17.868;2023-05-24T13:52:15;98965.97;;;18.63;72.21
69911;BME280;63555;49.920;17.868;2023-05-24T13:57:16;98966.63;;;18.65;72.09
69911;BME280;63555;49.920;17.868;2023-05-24T14:02:16;98957.41;;;18.60;71.87
69911;BME280;63555;49.920;17.868;2023-05-24T14:07:18;98939.28;;;18.80;71.53
69911;BME280;63555;49.920;17.868;2023-05-24T14:12:19;98950.56;;;19.07;70.77
69911;BME280;63555;49.920;17.868;2023-05-24T14:17:19;98954.06;;;19.32;69.88
69911;BME280;63555;49.920;17.868;2023-05-24T14:22:20;98945.34;;;19.06;68.76
69911;BME280;63555;49.920;17.868;2023-05-24T14:27:22;98943.22;;;19.42;67.23
69911;BME280;63555;49.920;17.868;2023-05-24T14:32:22;98945.72;;;19.68;65.06
69911;BME280;63555;49.920;17.868;2023-05-24T14:37:22;98944.03;;;19.26;65.37
69911;BME280;63555;49.920;17.868;2023-05-24T14:42:23;98942.72;;;19.38;65.26
69911;BME280;63555;49.920;17.868;2023-05-24T14:47:23;98952.91;;;19.51;64.30
69911;BME280;63555;49.920;17.868;2023-05-24T14:52:23;98948.72;;;19.49;64.05
69911;BME280;63555;49.920;17.868;2023-05-24T14:57:24;98950.19;;;19.02;63.76
69911;BME280;63555;49.920;17.868;2023-05-24T15:02:24;98950.53;;;18.57;65.13
69911;BME280;63555;49.920;17.868;2023-05-24T15:07:25;98957.78;;;18.31;65.36
69911;BME280;63555;49.920;17.868;2023-05-24T15:12:25;98946.78;;;18.34;65.22
69911;BME280;63555;49.920;17.868;2023-05-24T15:17:26;98958.38;;;18.51;64.22
69911;BME280;63555;49.920;17.868;2023-05-24T15:22:26;98951.16;;;18.43;63.98
69911;BME280;63555;49.920;17.868;2023-05-24T15:27:26;98950.69;;;18.13;64.08
69911;BME280;63555;49.920;17.868;2023-05-24T15:32:27;98946.59;;;18.01;64.47
69911;BME280;63555;49.920;17.868;2023-05-24T15:37:27;98944.47;;;17.79;64.50
69911;BME280;63555;49.920;17.868;2023-05-24T15:42:27;98955.66;;;17.39;64.92
69911;BME280;63555;49.920;17.868;2023-05-24T15:47:29;98957.25;;;17.14;65.77
69911;BME280;63555;49.920;17.868;2023-05-24T15:52:35;98953.44;;;16.99;65.67
69911;BME280;63555;49.920;17.868;2023-05-24T15:57:36;98959.22;;;16.76;66.05
69911;BME280;63555;49.920;17.868;2023-05-24T16:02:37;98958.63;;;16.82;66.06
69911;BME280;63555;49.920;17.868;2023-05-24T16:07:37;98963.56;;;16.77;65.79
69911;BME280;63555;49.920;17.868;2023-05-24T16:12:37;98955.06;;;16.64;65.84
69911;BME280;63555;49.920;17.868;2023-05-24T16:17:38;98965.22;;;16.51;66.26
69911;BME280;63555;49.920;17.868;2023-05-24T16:22:46;98964.00;;;16.36;66.16
69911;BME280;63555;49.920;17.868;2023-05-24T16:27:47;98966.31;;;16.21;66.70
69911;BME280;63555;49.920;17.868;2023-05-24T16:32:48;98976.16;;;16.11;66.78
69911;BME280;63555;49.920;17.868;2023-05-24T16:37:50;98986.94;;;16.09;66.79
69911;BME280;63555;49.920;17.868;2023-05-24T16:42:50;98981.53;;;16.01;67.00
69911;BME280;63555;49.920;17.868;2023-05-24T16:47:52;98995.09;;;15.98;66.90
69911;BME280;63555;49.920;17.868;2023-05-24T16:52:53;99005.91;;;15.87;67.32
69911;BME280;63555;49.920;17.868;2023-05-24T16:57:53;99005.69;;;15.61;67.34
69911;BME280;63555;49.920;17.868;2023-05-24T17:02:53;99008.16;;;15.43;67.61
69911;BME280;63555;49.920;17.868;2023-05-24T17:07:54;98997.66;;;15.32;67.85
69911;BME280;63555;49.920;17.868;2023-05-24T17:12:55;99004.25;;;15.28;67.94
69911;BME280;63555;49.920;17.868;2023-05-24T17:17:55;99004.09;;;15.10;68.32
69911;BME280;63555;49.920;17.868;2023-05-24T17:22:55;99012.31;;;14.97;68.55
69911;BME280;63555;49.920;17.868;2023-05-24T17:27:56;99019.69;;;14.75;68.49
69911;BME280;63555;49.920;17.868;2023-05-24T17:32:56;99031.78;;;14.58;68.90
69911;BME280;63555;49.920;17.868;2023-05-24T17:37:56;99030.31;;;14.44;69.35
69911;BME280;63555;49.920;17.868;2023-05-24T17:42:57;99035.13;;;14.29;69.58
69911;BME280;63555;49.920;17.868;2023-05-24T17:47:57;99028.47;;;14.14;69.85
69911;BME280;63555;49.920;17.868;2023-05-24T17:52:58;99039.63;;;14.08;70.01
69911;BME280;63555;49.920;17.868;2023-05-24T17:57:58;99046.09;;;13.94;70.34
69911;BME280;63555;49.920;17.868;2023-05-24T18:02:59;99059.25;;;13.85;70.62
69911;BME280;63555;49.920;17.868;2023-05-24T18:08:00;99060.88;;;13.76;70.71
69911;BME280;63555;49.920;17.868;2023-05-24T18:13:00;99070.06;;;13.72;71.02
69911;BME280;63555;49.920;17.868;2023-05-24T18:18:01;99071.28;;;13.68;70.93
69911;BME280;63555;49.920;17.868;2023-05-24T18:23:02;99076.84;;;13.65;71.24
69911;BME280;63555;49.920;17.868;2023-05-24T18:28:02;99093.56;;;13.65;71.43
69911;BME280;63555;49.920;17.868;2023-05-24T18:33:03;99093.50;;;13.56;71.63
69911;BME280;63555;49.920;17.868;2023-05-24T18:38:03;99106.78;;;13.45;71.94
69911;BME280;63555;49.920;17.868;2023-05-24T18:43:04;99105.59;;;13.37;72.18
69911;BME280;63555;49.920;17.868;2023-05-24T18:48:04;99109.72;;;13.30;72.45
69911;BME280;63555;49.920;17.868;2023-05-24T18:53:05;99106.84;;;13.22;72.57
69911;BME280;63555;49.920;17.868;2023-05-24T18:58:05;99120.47;;;13.18;72.73
69911;BME280;63555;49.920;17.868;2023-05-24T19:03:05;99133.19;;;13.13;72.92
69911;BME280;63555;49.920;17.868;2023-05-24T19:08:08;99132.72;;;13.07;73.02
69911;BME280;63555;49.920;17.868;2023-05-24T19:13:09;99131.16;;;13.05;73.19
69911;BME280;63555;49.920;17.868;2023-05-24T19:18:09;99134.66;;;13.05;73.48
69911;BME280;63555;49.920;17.868;2023-05-24T19:23:09;99134.19;;;13.00;73.27
69911;BME280;63555;49.920;17.868;2023-05-24T19:28:10;99139.22;;;12.92;73.74
69911;BME280;63555;49.920;17.868;2023-05-24T19:33:10;99148.59;;;12.85;73.82
69911;BME280;63555;49.920;17.868;2023-05-24T19:38:11;99142.22;;;12.76;74.01
69911;BME280;63555;49.920;17.868;2023-05-24T19:43:14;99135.72;;;12.69;74.45
69911;BME280;63555;49.920;17.868;2023-05-24T19:48:14;99139.22;;;12.59;74.15
69911;BME280;63555;49.920;17.868;2023-05-24T19:53:14;99145.81;;;12.42;74.19
69911;BME280;63555;49.920;17.868;2023-05-24T19:58:15;99147.41;;;12.09;74.25
69911;BME280;63555;49.920;17.868;2023-05-24T20:03:15;99147.50;;;11.73;75.02
69911;BME280;63555;49.920;17.868;2023-05-24T20:08:17;99143.84;;;11.39;75.88
69911;BME280;63555;49.920;17.868;2023-05-24T20:13:17;99143.38;;;11.08;76.36
69911;BME280;63555;49.920;17.868;2023-05-24T20:18:18;99144.19;;;10.85;76.90
69911;BME280;63555;49.920;17.868;2023-05-24T20:23:18;99143.25;;;10.61;76.89
69911;BME280;63555;49.920;17.868;2023-05-24T20:28:18;99144.53;;;10.42;77.35
69911;BME280;63555;49.920;17.868;2023-05-24T20:33:19;99146.72;;;10.23;77.62
69911;BME280;63555;49.920;17.868;2023-05-24T20:38:19;99158.38;;;10.06;77.93
69911;BME280;63555;49.920;17.868;2023-05-24T20:43:19;99150.00;;;9.87;78.14
69911;BME280;63555;49.920;17.868;2023-05-24T20:48:20;99155.44;;;9.71;78.36
69911;BME280;63555;49.920;17.868;2023-05-24T20:53:22;99158.34;;;9.54;78.80
69911;BME280;63555;49.920;17.868;2023-05-24T20:58:22;99166.25;;;9.40;79.08
69911;BME280;63555;49.920;17.868;2023-05-24T21:03:22;99156.50;;;9.27;79.41
69911;BME280;63555;49.920;17.868;2023-05-24T21:08:23;99160.97;;;9.13;79.61
69911;BME280;63555;49.920;17.868;2023-05-24T21:13:23;99165.31;;;9.00;79.73
69911;BME280;63555;49.920;17.868;2023-05-24T21:18:24;99175.84;;;8.85;80.08
69911;BME280;63555;49.920;17.868;2023-05-24T21:23:24;99183.66;;;8.73;80.56
69911;BME280;63555;49.920;17.868;2023-05-24T21:28:25;99185.31;;;8.59;80.84
69911;BME280;63555;49.920;17.868;2023-05-24T21:33:25;99188.50;;;8.50;80.80
69911;BME280;63555;49.920;17.868;2023-05-24T21:38:25;99199.47;;;8.43;81.07
69911;BME280;63555;49.920;17.868;2023-05-24T21:43:26;99199.75;;;8.38;81.10
69911;BME280;63555;49.920;17.868;2023-05-24T21:48:26;99195.41;;;8.37;82.11
69911;BME280;63555;49.920;17.868;2023-05-24T21:53:26;99204.53;;;8.46;81.63
69911;BME280;63555;49.920;17.868;2023-05-24T21:58:27;99196.47;;;8.49;81.61
69911;BME280;63555;49.920;17.868;2023-05-24T22:03:27;99209.97;;;8.43;81.87
69911;BME280;63555;49.920;17.868;2023-05-24T22:08:27;99203.22;;;8.39;81.91
69911;BME280;63555;49.920;17.868;2023-05-24T22:13:29;99198.97;;;8.36;81.88
69911;BME280;63555;49.920;17.868;2023-05-24T22:18:29;99200.34;;;8.27;81.38
69911;BME280;63555;49.920;17.868;2023-05-24T22:23:30;99209.25;;;8.25;81.95
69911;BME280;63555;49.920;17.868;2023-05-24T22:28:47;99207.91;;;8.18;82.60
69911;BME280;63555;49.920;17.868;2023-05-24T22:33:48;99212.59;;;8.13;81.92
69911;BME280;63555;49.920;17.868;2023-05-24T22:38:48;99215.50;;;8.08;82.63
69911;BME280;63555;49.920;17.868;2023-05-24T22:43:49;99223.63;;;8.04;83.00
69911;BME280;63555;49.920;17.868;2023-05-24T22:48:50;99220.16;;;8.03;82.24
69911;BME280;63555;49.920;17.868;2023-05-24T22:53:55;99219.50;;;7.99;82.72
69911;BME280;63555;49.920;17.868;2023-05-24T22:58:56;99223.06;;;7.98;83.29
69911;BME280;63555;49.920;17.868;2023-05-24T23:03:57;99218.75;;;7.97;82.68
69911;BME280;63555;49.920;17.868;2023-05-24T23:08:59;99217.50;;;7.89;83.00
69911;BME280;63555;49.920;17.868;2023-05-24T23:14:01;99226.75;;;7.80;83.10
69911;BME280;63555;49.920;17.868;2023-05-24T23:19:01;99229.19;;;7.67;83.83
69911;BME280;63555;49.920;17.868;2023-05-24T23:24:04;99227.00;;;7.60;83.63
69911;BME280;63555;49.920;17.868;2023-05-24T23:29:04;99228.59;;;7.47;83.78
69911;BME280;63555;49.920;17.868;2023-05-24T23:34:05;99225.66;;;7.37;83.52
69911;BME280;63555;49.920;17.868;2023-05-24T23:39:06;99226.31;;;7.25;83.69
69911;BME280;63555;49.920;17.868;2023-05-24T23:44:06;99225.03;;;7.16;82.94
69911;BME280;63555;49.920;17.868;2023-05-24T23:49:07;99230.09;;;7.03;83.56
69911;BME280;63555;49.920;17.868;2023-05-24T23:54:07;99229.75;;;6.94;84.04
69911;BME280;63555;49.920;17.868;2023-05-24T23:59:07;99237.31;;;6.83;83.53
